createdAt,value
2017-05-11T00:01:27.736Z,4.65
2017-05-11T00:03:54.404Z,4.38
2017-05-11T00:06:21.076Z,4.23
2017-05-11T00:08:47.759Z,4.82
2017-05-11T00:11:14.433Z,4.32
2017-05-11T00:13:41.097Z,4.93
2017-05-11T00:16:07.790Z,4.78
2017-05-11T00:18:34.456Z,4.40
2017-05-11T00:21:01.125Z,4.60
2017-05-11T00:23:27.829Z,4.95
2017-05-11T00:25:54.496Z,5.17
2017-05-11T00:28:21.189Z,4.50
2017-05-11T00:30:47.885Z,4.95
2017-05-11T00:33:14.572Z,4.87
2017-05-11T00:35:41.238Z,5.07
2017-05-11T00:38:08.220Z,5.28
2017-05-11T00:40:34.889Z,5.02
2017-05-11T00:43:01.551Z,6.35
2017-05-11T00:45:28.243Z,6.58
2017-05-11T00:47:54.907Z,5.55
2017-05-11T00:50:21.568Z,5.55
2017-05-11T00:52:48.277Z,7.03
2017-05-11T00:55:14.948Z,6.47
2017-05-11T00:57:41.624Z,7.32
2017-05-11T01:00:08.317Z,7.58
2017-05-11T01:02:34.995Z,7.33
2017-05-11T01:05:01.677Z,7.20
2017-05-11T01:07:28.375Z,6.42
2017-05-11T01:09:55.055Z,6.88
2017-05-11T01:12:21.729Z,7.52
2017-05-11T01:14:48.415Z,6.35
2017-05-11T01:17:15.085Z,7.10
2017-05-11T01:19:41.752Z,6.57
2017-05-11T01:22:08.476Z,7.47
2017-05-11T01:24:35.140Z,6.50
2017-05-11T01:27:01.820Z,6.37
2017-05-11T01:29:28.516Z,6.63
2017-05-11T01:31:55.205Z,8.42
2017-05-11T01:34:21.872Z,7.72
2017-05-11T01:36:48.565Z,6.67
2017-05-11T01:39:15.232Z,5.87
2017-05-11T01:41:41.911Z,6.85
2017-05-11T01:44:08.621Z,6.43
2017-05-11T01:46:35.291Z,7.00
2017-05-11T01:49:01.975Z,6.95
2017-05-11T01:51:28.677Z,7.23
2017-05-11T01:53:55.356Z,7.02
2017-05-11T01:56:22.027Z,6.13
2017-05-11T01:58:48.710Z,6.28
2017-05-11T02:01:15.386Z,5.97
2017-05-11T02:03:42.057Z,5.75
2017-05-11T02:06:08.761Z,5.32
2017-05-11T02:08:35.436Z,5.70
2017-05-11T02:11:02.118Z,5.33
2017-05-11T02:13:28.805Z,5.15
2017-05-11T02:15:55.472Z,5.93
2017-05-11T02:18:22.385Z,6.25
2017-05-11T02:20:49.074Z,5.78
2017-05-11T02:23:15.750Z,5.52
2017-05-11T02:25:42.422Z,5.85
2017-05-11T02:28:09.129Z,5.60
2017-05-11T02:30:35.803Z,5.98
2017-05-11T02:33:02.473Z,5.83
2017-05-11T02:35:29.171Z,5.73
2017-05-11T02:37:55.869Z,6.35
2017-05-11T02:40:22.531Z,5.62
2017-05-11T02:42:49.197Z,6.17
2017-05-11T02:45:15.883Z,5.70
2017-05-11T02:47:42.541Z,6.25
2017-05-11T02:50:09.208Z,5.87
2017-05-11T02:52:36.167Z,5.62
2017-05-11T02:55:02.833Z,6.63
2017-05-11T02:57:29.499Z,5.48
2017-05-11T02:59:56.215Z,6.53
2017-05-11T03:02:22.880Z,5.83
2017-05-11T03:04:49.541Z,5.25
2017-05-11T03:07:16.240Z,6.80
2017-05-11T03:09:42.909Z,7.03
2017-05-11T03:12:09.575Z,6.80
2017-05-11T03:14:36.270Z,6.93
2017-05-11T03:17:02.931Z,7.03
2017-05-11T03:19:29.614Z,6.20
2017-05-11T03:21:56.309Z,6.97
2017-05-11T03:24:22.997Z,6.48
2017-05-11T03:26:49.665Z,6.77
2017-05-11T03:29:16.352Z,6.87
2017-05-11T03:31:43.026Z,6.90
2017-05-11T03:34:09.694Z,7.67
2017-05-11T03:36:36.409Z,7.12
2017-05-11T03:39:03.078Z,7.38
2017-05-11T03:41:29.766Z,5.92
2017-05-11T03:43:56.449Z,6.48
2017-05-11T03:46:23.118Z,6.35
2017-05-11T03:48:49.782Z,5.97
2017-05-11T03:51:16.473Z,6.92
2017-05-11T03:53:43.159Z,7.42
2017-05-11T03:56:09.835Z,6.17
2017-05-11T03:58:36.512Z,6.02
2017-05-11T04:01:03.177Z,6.27
2017-05-11T04:03:29.842Z,6.42
2017-05-11T04:05:56.528Z,6.37
2017-05-11T04:08:23.194Z,7.60
2017-05-11T04:10:49.870Z,8.17
2017-05-11T04:13:16.561Z,7.27
2017-05-11T04:15:43.227Z,6.78
2017-05-11T04:18:09.892Z,6.68
2017-05-11T04:20:36.608Z,5.47
2017-05-11T04:23:03.276Z,6.13
2017-05-11T04:25:29.958Z,6.47
2017-05-11T04:27:56.658Z,5.77
2017-05-11T04:30:23.341Z,6.32
2017-05-11T04:32:50.006Z,6.92
2017-05-11T04:35:16.697Z,8.60
2017-05-11T04:37:43.362Z,7.62
2017-05-11T04:40:10.025Z,7.28
2017-05-11T04:42:36.721Z,7.98
2017-05-11T04:45:03.390Z,7.03
2017-05-11T04:47:30.061Z,7.77
2017-05-11T04:49:56.761Z,8.40
2017-05-11T04:52:23.442Z,10.07
2017-05-11T04:54:50.127Z,7.57
2017-05-11T04:57:16.821Z,9.08
2017-05-11T04:59:43.509Z,8.13
2017-05-11T05:02:10.184Z,7.28
2017-05-11T05:04:36.924Z,8.87
2017-05-11T05:07:04.060Z,9.37
2017-05-11T05:09:30.736Z,8.48
2017-05-11T05:11:57.440Z,8.58
2017-05-11T05:14:24.110Z,9.13
2017-05-11T05:16:50.793Z,8.68
2017-05-11T05:19:17.469Z,8.26
2017-05-11T05:21:44.133Z,8.88
2017-05-11T05:24:10.808Z,8.93
2017-05-11T05:26:37.494Z,7.90
2017-05-11T05:29:04.181Z,8.63
2017-05-11T05:31:30.844Z,8.28
2017-05-11T05:33:57.529Z,8.14
2017-05-11T05:36:24.196Z,9.00
2017-05-11T05:38:50.860Z,7.62
2017-05-11T05:41:17.556Z,8.92
2017-05-11T05:43:44.222Z,8.60
2017-05-11T05:46:10.891Z,8.14
2017-05-11T05:48:37.575Z,8.24
2017-05-11T05:51:04.237Z,9.48
2017-05-11T05:53:30.913Z,8.28
2017-05-11T05:55:57.606Z,9.12
2017-05-11T05:58:24.276Z,10.50
2017-05-11T06:00:50.943Z,9.80
2017-05-11T06:03:17.642Z,9.64
2017-05-11T06:05:44.302Z,8.62
2017-05-11T06:08:10.973Z,8.78
2017-05-11T06:10:37.661Z,9.60
2017-05-11T06:13:04.330Z,9.38
2017-05-11T06:15:31.007Z,8.42
2017-05-11T06:17:57.692Z,8.60
2017-05-11T06:20:24.349Z,8.40
2017-05-11T06:22:51.013Z,8.40
2017-05-11T06:25:17.707Z,9.20
2017-05-11T06:27:44.373Z,8.50
2017-05-11T06:30:11.038Z,9.04
2017-05-11T06:32:37.720Z,8.94
2017-05-11T06:35:04.388Z,8.44
2017-05-11T06:37:31.050Z,7.76
2017-05-11T06:39:57.751Z,8.32
2017-05-11T06:42:24.409Z,8.16
2017-05-11T06:44:51.069Z,7.98
2017-05-11T06:47:17.761Z,7.52
2017-05-11T06:49:44.428Z,7.12
2017-05-11T06:52:11.091Z,7.66
2017-05-11T06:54:37.785Z,7.82
2017-05-11T06:57:04.441Z,7.18
2017-05-11T06:59:31.107Z,7.50
2017-05-11T07:01:57.784Z,6.92
2017-05-11T07:04:24.446Z,7.66
2017-05-11T07:06:51.116Z,7.30
2017-05-11T07:09:17.818Z,7.90
2017-05-11T07:11:44.484Z,8.66
2017-05-11T07:14:11.148Z,7.60
2017-05-11T07:16:37.836Z,7.80
2017-05-11T07:19:04.499Z,6.60
2017-05-11T07:21:31.159Z,7.48
2017-05-11T07:23:57.859Z,6.80
2017-05-11T07:26:24.524Z,6.22
2017-05-11T07:28:51.193Z,6.44
2017-05-11T07:31:17.875Z,6.40
2017-05-11T07:33:44.542Z,6.28
2017-05-11T07:36:11.206Z,7.10
2017-05-11T07:38:37.893Z,7.52
2017-05-11T07:41:04.597Z,7.74
2017-05-11T07:43:31.258Z,6.66
2017-05-11T07:45:57.956Z,7.26
2017-05-11T07:48:24.626Z,6.92
2017-05-11T07:50:51.293Z,6.76
2017-05-11T07:53:18.246Z,6.78
2017-05-11T07:55:44.916Z,6.74
2017-05-11T07:58:11.582Z,6.80
2017-05-11T08:00:38.262Z,6.30
2017-05-11T08:03:04.924Z,6.28
2017-05-11T08:05:31.581Z,6.82
2017-05-11T08:07:58.262Z,5.56
2017-05-11T08:10:24.924Z,5.74
2017-05-11T08:12:51.580Z,5.96
2017-05-11T08:15:18.269Z,4.96
2017-05-11T08:17:44.935Z,4.46
2017-05-11T08:20:11.606Z,4.68
2017-05-11T08:22:38.302Z,3.96
2017-05-11T08:25:04.969Z,4.76
2017-05-11T08:27:31.629Z,3.96
2017-05-11T08:29:58.311Z,3.94
2017-05-11T08:32:24.972Z,4.58
2017-05-11T08:34:51.635Z,4.54
2017-05-11T08:37:18.535Z,4.92
2017-05-11T08:39:45.197Z,4.80
2017-05-11T08:42:11.870Z,4.20
2017-05-11T08:44:39.530Z,4.28
2017-05-11T08:47:06.197Z,4.60
2017-05-11T08:49:32.858Z,5.20
2017-05-11T08:51:59.716Z,4.16
2017-05-11T08:54:26.388Z,4.10
2017-05-11T08:56:53.048Z,4.62
2017-05-11T08:59:19.743Z,4.96
2017-05-11T09:01:46.403Z,4.78
2017-05-11T09:04:13.078Z,4.76
2017-05-11T09:06:39.768Z,4.80
2017-05-11T09:09:06.431Z,4.68
2017-05-11T09:11:33.094Z,4.64
2017-05-11T09:13:59.780Z,4.92
2017-05-11T09:16:26.452Z,4.78
2017-05-11T09:18:53.113Z,4.10
2017-05-11T09:21:19.810Z,5.38
2017-05-11T09:23:46.469Z,4.10
2017-05-11T09:26:13.128Z,4.46
2017-05-11T09:28:39.817Z,4.32
2017-05-11T09:31:06.486Z,4.40
2017-05-11T09:33:33.145Z,3.72
2017-05-11T09:35:59.832Z,4.48
2017-05-11T09:38:26.505Z,3.74
2017-05-11T09:40:53.170Z,4.28
2017-05-11T09:43:19.856Z,4.26
2017-05-11T09:45:46.517Z,4.30
2017-05-11T09:48:13.173Z,4.10
2017-05-11T09:50:39.891Z,4.06
2017-05-11T09:53:06.554Z,3.54
2017-05-11T09:55:33.213Z,3.70
2017-05-11T09:57:59.898Z,4.10
2017-05-11T10:00:26.569Z,3.82
2017-05-11T10:02:53.230Z,4.00
2017-05-11T10:05:19.920Z,3.62
2017-05-11T10:07:46.588Z,3.66
2017-05-11T10:10:13.248Z,2.94
2017-05-11T10:12:39.920Z,3.46
2017-05-11T10:15:06.587Z,3.92
2017-05-11T10:17:33.246Z,2.82
2017-05-11T10:19:59.939Z,2.26
2017-05-11T10:22:26.600Z,2.80
2017-05-11T10:24:53.262Z,2.44
2017-05-11T10:27:19.952Z,2.30
2017-05-11T10:29:46.608Z,2.26
2017-05-11T10:32:13.273Z,2.60
2017-05-11T10:34:39.967Z,2.50
2017-05-11T10:37:06.624Z,2.58
2017-05-11T10:39:34.208Z,2.26
2017-05-11T10:42:00.905Z,2.28
2017-05-11T10:44:27.565Z,2.34
2017-05-11T10:46:54.234Z,1.68
2017-05-11T10:49:20.924Z,2.00
2017-05-11T10:51:47.583Z,1.68
2017-05-11T10:54:14.241Z,2.08
2017-05-11T10:56:40.933Z,1.70
2017-05-11T10:59:07.598Z,1.68
2017-05-11T11:01:34.262Z,1.64
2017-05-11T11:04:00.939Z,1.72
2017-05-11T11:06:27.597Z,2.26
2017-05-11T11:08:54.255Z,1.58
2017-05-11T11:11:20.938Z,1.78
2017-05-11T11:13:47.603Z,1.80
2017-05-11T11:16:14.261Z,1.38
2017-05-11T11:18:42.861Z,1.50
2017-05-11T11:21:09.531Z,1.76
2017-05-11T11:23:36.201Z,1.50
2017-05-11T11:26:03.174Z,2.02
2017-05-11T11:28:29.835Z,1.82
2017-05-11T11:30:56.496Z,2.06
2017-05-11T11:33:23.183Z,1.80
2017-05-11T11:35:49.878Z,1.84
2017-05-11T11:38:16.558Z,1.96
2017-05-11T11:40:43.252Z,2.12
2017-05-11T11:43:09.916Z,2.00
2017-05-11T11:45:36.853Z,1.64
2017-05-11T11:48:03.516Z,1.50
2017-05-11T11:50:30.177Z,1.94
2017-05-11T11:52:56.898Z,2.02
2017-05-11T11:55:23.725Z,1.80
2017-05-11T11:57:50.384Z,1.70
2017-05-11T12:00:17.086Z,1.72
2017-05-11T12:02:43.761Z,1.88
2017-05-11T12:05:10.620Z,2.00
2017-05-11T12:07:37.421Z,1.62
2017-05-11T12:10:04.488Z,1.70
2017-05-11T12:12:31.152Z,1.48
2017-05-11T12:14:57.853Z,1.50
2017-05-11T12:17:24.511Z,1.56
2017-05-11T12:19:51.196Z,1.38
2017-05-11T12:22:17.893Z,1.78
2017-05-11T12:24:44.578Z,1.60
2017-05-11T12:27:11.279Z,1.60
2017-05-11T12:29:37.965Z,1.52
2017-05-11T12:32:04.624Z,1.82
2017-05-11T12:34:31.309Z,1.42
2017-05-11T12:36:57.976Z,1.80
2017-05-11T12:39:24.641Z,1.60
2017-05-11T12:41:52.959Z,1.42
2017-05-11T12:44:20.926Z,1.96
2017-05-11T12:46:49.399Z,2.00
2017-05-11T12:49:17.028Z,2.00
2017-05-11T12:51:44.616Z,2.30
2017-05-11T12:54:12.472Z,1.68
2017-05-11T12:56:40.441Z,1.72
2017-05-11T12:59:08.079Z,2.12
2017-05-11T13:01:35.676Z,1.92
2017-05-11T13:04:03.510Z,1.80
2017-05-11T13:06:31.369Z,1.92
2017-05-11T13:08:59.277Z,1.96
2017-05-11T13:11:26.803Z,1.80
2017-05-11T13:13:53.503Z,1.76
2017-05-11T13:16:20.167Z,1.66
2017-05-11T13:18:47.764Z,1.90
2017-05-11T13:21:14.424Z,1.72
2017-05-11T13:23:41.089Z,1.74
2017-05-11T13:26:07.777Z,1.96
2017-05-11T13:28:34.437Z,2.86
2017-05-11T13:31:01.098Z,2.00
2017-05-11T13:33:27.787Z,2.12
2017-05-11T13:35:54.449Z,1.68
2017-05-11T13:38:21.110Z,1.74
2017-05-11T13:40:48.135Z,1.66
2017-05-11T13:43:14.802Z,1.80
2017-05-11T13:45:41.465Z,2.16
2017-05-11T13:48:08.153Z,1.72
2017-05-11T13:50:34.822Z,2.02
2017-05-11T13:53:01.481Z,1.82
2017-05-11T13:55:28.214Z,1.60
2017-05-11T13:57:54.877Z,1.70
2017-05-11T14:00:21.537Z,3.54
2017-05-11T14:02:48.218Z,1.48
2017-05-11T14:05:14.873Z,1.30
2017-05-11T14:07:41.536Z,1.50
2017-05-11T14:10:08.233Z,1.36
2017-05-11T14:12:34.898Z,1.62
2017-05-11T14:15:01.565Z,1.58
2017-05-11T14:17:28.258Z,1.24
2017-05-11T14:19:54.921Z,1.30
2017-05-11T14:22:21.585Z,1.26
2017-05-11T14:24:48.290Z,1.10
2017-05-11T14:27:14.947Z,1.38
2017-05-11T14:29:41.608Z,1.14
2017-05-11T14:32:08.376Z,1.04
2017-05-11T14:34:35.041Z,1.10
2017-05-11T14:37:01.718Z,1.08
2017-05-11T14:39:28.422Z,1.00
2017-05-11T14:41:55.081Z,1.20
2017-05-11T14:44:21.770Z,1.36
2017-05-11T14:46:48.448Z,1.24
2017-05-11T14:49:15.114Z,0.90
2017-05-11T14:51:41.885Z,1.20
2017-05-11T14:54:08.587Z,1.40
2017-05-11T14:56:35.277Z,1.20
2017-05-11T14:59:01.935Z,1.10
2017-05-11T15:01:28.625Z,1.22
2017-05-11T15:03:55.285Z,1.20
2017-05-11T15:06:21.951Z,1.34
2017-05-11T15:08:48.654Z,1.14
2017-05-11T15:11:15.325Z,1.26
2017-05-11T15:13:41.991Z,1.04
2017-05-11T15:16:08.700Z,1.60
2017-05-11T15:18:35.359Z,1.20
2017-05-11T15:21:02.020Z,1.22
2017-05-11T15:23:28.717Z,1.20
2017-05-11T15:25:55.381Z,1.40
2017-05-11T15:28:22.084Z,1.52
2017-05-11T15:30:48.774Z,1.30
2017-05-11T15:33:15.513Z,1.38
2017-05-11T15:35:42.196Z,1.40
2017-05-11T15:38:08.885Z,1.32
2017-05-11T15:40:35.576Z,1.40
2017-05-11T15:43:02.536Z,1.70
2017-05-11T15:45:29.216Z,1.30
2017-05-11T15:47:55.921Z,1.24
2017-05-11T15:50:22.601Z,1.34
2017-05-11T15:52:49.300Z,1.64
2017-05-11T15:55:15.976Z,1.54
2017-05-11T15:57:42.778Z,1.36
2017-05-11T16:00:10.461Z,1.74
2017-05-11T16:02:37.187Z,1.60
2017-05-11T16:05:03.872Z,1.60
2017-05-11T16:07:30.554Z,1.52
2017-05-11T16:09:57.259Z,1.60
2017-05-11T16:12:24.180Z,1.70
2017-05-11T16:14:51.044Z,1.48
2017-05-11T16:17:17.748Z,1.60
2017-05-11T16:19:44.460Z,2.22
2017-05-11T16:22:11.139Z,2.80
2017-05-11T16:24:37.847Z,2.40
2017-05-11T16:27:04.786Z,2.72
2017-05-11T16:29:31.521Z,1.90
2017-05-11T16:31:58.198Z,2.64
2017-05-11T16:34:24.910Z,2.60
2017-05-11T16:36:51.940Z,2.66
2017-05-11T16:39:18.658Z,2.50
2017-05-11T16:41:45.488Z,2.40
2017-05-11T16:44:12.177Z,2.66
2017-05-11T16:46:38.868Z,2.66
2017-05-11T16:49:05.523Z,2.58
2017-05-11T16:51:32.432Z,2.10
2017-05-11T16:53:59.145Z,2.88
2017-05-11T16:56:26.219Z,2.60
2017-05-11T16:58:52.886Z,2.86
2017-05-11T17:01:19.550Z,2.54
2017-05-11T17:03:46.270Z,2.68
2017-05-11T17:06:12.929Z,2.34
2017-05-11T17:08:39.595Z,2.36
2017-05-11T17:11:06.303Z,2.26
2017-05-11T17:13:32.961Z,2.20
2017-05-11T17:15:59.618Z,2.78
2017-05-11T17:18:26.313Z,2.18
2017-05-11T17:20:52.974Z,2.16
2017-05-11T17:23:19.636Z,2.42
2017-05-11T17:25:46.501Z,1.80
2017-05-11T17:28:13.173Z,1.88
2017-05-11T17:30:39.872Z,2.46
2017-05-11T17:33:06.711Z,2.34
2017-05-11T17:35:33.411Z,2.22
2017-05-11T17:38:00.069Z,1.80
2017-05-11T17:40:26.768Z,1.72
2017-05-11T17:42:53.427Z,2.30
2017-05-11T17:45:20.108Z,2.38
2017-05-11T17:47:46.777Z,2.04
2017-05-11T17:50:13.448Z,2.00
2017-05-11T17:52:40.129Z,2.24
2017-05-11T17:57:36.986Z,2.46
2017-05-11T18:00:03.643Z,1.82
2017-05-11T18:02:30.308Z,2.42
2017-05-11T18:04:56.985Z,1.98
2017-05-11T18:07:23.652Z,2.72
2017-05-11T18:09:50.312Z,2.16
2017-05-11T18:12:17.002Z,2.60
2017-05-11T18:14:43.675Z,2.78
2017-05-11T18:17:10.332Z,2.60
2017-05-11T18:19:37.014Z,2.30
2017-05-11T18:22:03.680Z,2.90
2017-05-11T18:24:30.340Z,3.68
2017-05-11T18:26:57.015Z,3.80
2017-05-11T18:29:23.679Z,3.14
2017-05-11T18:31:50.362Z,4.30
2017-05-11T18:34:18.045Z,3.08
2017-05-11T18:36:44.706Z,2.72
2017-05-11T18:39:11.440Z,2.98
2017-05-11T18:41:38.122Z,3.36
2017-05-11T18:44:04.842Z,2.82
2017-05-11T18:46:31.507Z,2.80
2017-05-11T18:48:58.207Z,2.78
2017-05-11T18:51:24.900Z,2.80
2017-05-11T18:53:51.559Z,2.72
2017-05-11T18:56:18.238Z,3.00
2017-05-11T18:58:44.904Z,2.64
2017-05-11T19:01:11.748Z,3.18
2017-05-11T19:03:38.433Z,3.32
2017-05-11T19:06:05.116Z,2.94
2017-05-11T19:08:31.782Z,3.12
2017-05-11T19:10:58.468Z,3.34
2017-05-11T19:13:25.125Z,3.38
2017-05-11T19:15:51.785Z,3.30
2017-05-11T19:18:18.472Z,3.20
2017-05-11T19:20:45.277Z,3.62
2017-05-11T19:23:12.168Z,3.48
2017-05-11T19:25:38.849Z,3.80
2017-05-11T19:28:05.509Z,3.46
2017-05-11T19:30:32.201Z,3.80
2017-05-11T19:32:58.881Z,4.04
2017-05-11T19:35:25.537Z,3.88
2017-05-11T19:37:52.247Z,3.74
2017-05-11T19:40:18.897Z,3.56
2017-05-11T19:42:45.553Z,3.90
2017-05-11T19:45:12.264Z,3.94
2017-05-11T19:47:38.917Z,3.88
2017-05-11T19:50:05.568Z,3.72
2017-05-11T19:52:32.266Z,4.10
2017-05-11T19:54:58.927Z,4.04
2017-05-11T19:57:25.616Z,4.06
2017-05-11T19:59:52.810Z,3.92
2017-05-11T20:02:19.499Z,3.92
2017-05-11T20:04:46.189Z,3.66
2017-05-11T20:07:12.849Z,4.00
2017-05-11T20:09:39.512Z,3.58
2017-05-11T20:12:06.240Z,3.98
2017-05-11T20:14:32.923Z,3.90
2017-05-11T20:16:59.585Z,4.02
2017-05-11T20:19:26.264Z,4.28
2017-05-11T20:21:52.938Z,5.44
2017-05-11T20:24:19.613Z,6.72
2017-05-11T20:26:46.292Z,4.24
2017-05-11T20:29:12.956Z,3.40
2017-05-11T20:31:39.614Z,3.68
2017-05-11T20:34:06.305Z,4.26
2017-05-11T20:36:32.972Z,3.32
2017-05-11T20:38:59.627Z,3.46
2017-05-11T20:41:26.345Z,4.20
2017-05-11T20:43:53.008Z,3.78
2017-05-11T20:46:19.669Z,3.60
2017-05-11T20:48:46.350Z,3.84
2017-05-11T20:51:13.015Z,3.32
2017-05-11T20:53:39.673Z,3.82
2017-05-11T20:56:06.451Z,3.30
2017-05-11T20:58:33.112Z,3.78
2017-05-11T21:00:59.778Z,3.76
2017-05-11T21:03:27.453Z,3.72
2017-05-11T21:05:54.118Z,3.60
2017-05-11T21:08:20.793Z,3.82
2017-05-11T21:10:47.479Z,4.36
2017-05-11T21:13:14.142Z,3.88
2017-05-11T21:15:40.801Z,4.28
2017-05-11T21:18:07.485Z,4.54
2017-05-11T21:20:34.141Z,4.26
2017-05-11T21:23:00.821Z,4.18
2017-05-11T21:25:27.536Z,4.34
2017-05-11T21:27:54.197Z,4.44
2017-05-11T21:30:20.860Z,4.02
2017-05-11T21:32:47.547Z,4.46
2017-05-11T21:35:14.216Z,4.34
2017-05-11T21:37:40.886Z,4.28
2017-05-11T21:40:07.612Z,4.46
2017-05-11T21:42:34.271Z,3.82
2017-05-11T21:45:00.931Z,4.00
2017-05-11T21:47:27.650Z,4.22
2017-05-11T21:49:54.303Z,4.06
2017-05-11T21:52:20.985Z,3.82
2017-05-11T21:54:47.668Z,4.12
2017-05-11T21:57:14.326Z,4.66
2017-05-11T21:59:40.996Z,3.94
2017-05-11T22:02:07.680Z,4.20
2017-05-11T22:04:34.343Z,4.78
2017-05-11T22:07:01.014Z,4.54
2017-05-11T22:09:27.708Z,4.04
2017-05-11T22:11:54.388Z,4.38
2017-05-11T22:14:21.057Z,4.64
2017-05-11T22:16:47.962Z,4.44
2017-05-11T22:19:14.625Z,5.40
2017-05-11T22:21:41.283Z,5.08
2017-05-11T22:24:07.973Z,4.08
2017-05-11T22:26:34.634Z,4.64
2017-05-11T22:29:01.293Z,4.56
2017-05-11T22:31:28.072Z,4.86
2017-05-11T22:33:54.755Z,4.98
2017-05-11T22:36:21.409Z,4.80
2017-05-11T22:38:48.105Z,5.10
2017-05-11T22:41:14.764Z,4.94
2017-05-11T22:43:41.425Z,4.64
2017-05-11T22:46:08.112Z,4.90
2017-05-11T22:48:34.776Z,5.04
2017-05-11T22:51:01.431Z,4.80
2017-05-11T22:53:28.119Z,5.24
2017-05-11T22:55:54.792Z,4.42
2017-05-11T22:58:21.452Z,5.20
2017-05-11T23:00:48.131Z,4.64
2017-05-11T23:03:14.812Z,4.90
2017-05-11T23:05:41.473Z,4.62
2017-05-11T23:08:08.369Z,4.38
2017-05-11T23:10:35.028Z,4.58
2017-05-11T23:13:01.693Z,4.94
2017-05-11T23:15:28.375Z,4.80
2017-05-11T23:17:55.047Z,4.76
2017-05-11T23:20:21.705Z,4.40
2017-05-11T23:22:48.376Z,5.12
2017-05-11T23:25:15.057Z,4.66
2017-05-11T23:27:41.725Z,4.66
2017-05-11T23:30:08.408Z,4.98
2017-05-11T23:32:35.071Z,5.50
2017-05-11T23:35:01.727Z,4.72
2017-05-11T23:37:28.510Z,5.30
2017-05-11T23:39:55.170Z,4.58
2017-05-11T23:42:21.835Z,4.90
2017-05-11T23:44:48.527Z,5.02
2017-05-11T23:47:15.209Z,5.08
2017-05-11T23:49:41.870Z,4.76
2017-05-11T23:52:08.573Z,5.20
2017-05-11T23:54:35.234Z,5.00
2017-05-11T23:57:01.898Z,5.44
2017-05-11T23:59:28.794Z,4.62
